Station Historical Data
Daily Summary for June 18, 2017 Units:  English    Metric   Both
« Previous Day
Next Day »
Daily Weekly Monthly Yearly Custom
  High: Low: Average:
Temperature: 84.5 °F 71.2 °F 75.4 °F
Dew Point: 73.7 °F 67.7 °F 69.9 °F
Humidity: 90% 61% 84%
Wind Speed: 1.0mph 0.0mph 0mph
Wind Gust: 6.0mph - -
Wind- - NW
Pressure: 29.96 in 29.84 in -
Precipitation: 0.06 in    
Historical Graphs
 
 
Tabular Data for June 18, 2017
Time Temperature Dew Point Pressure Wind Wind Speed Wind Gust Humidity Rainfall Rate (Hourly) solar Conditions
00:00 73.2 °F 68.8 °F 29.87 in Calm     86% 0.00 in WeatherDisplay:10.37 W/m2 CLR
00:10 73.0 °F 68.9 °F 29.87 in Calm     87% 0.00 in WeatherDisplay:10.37 W/m2 CLR
00:20 72.8 °F 68.7 °F 29.87 in Calm     87% 0.00 in WeatherDisplay:10.37 W/m2 CLR
00:30 72.7 °F 68.6 °F 29.87 in Calm     87% 0.00 in WeatherDisplay:10.37 W/m2 CLR
00:40 72.5 °F 68.7 °F 29.87 in Calm     88% 0.00 in WeatherDisplay:10.37 W/m2 CLR
00:50 72.3 °F 68.5 °F 29.86 in Calm     88% 0.00 in WeatherDisplay:10.37 W/m2 CLR
01:00 72.1 °F 68.7 °F 29.86 in Calm     89% 0.00 in WeatherDisplay:10.37 W/m2 CLR
01:10 72.0 °F 68.6 °F 29.86 in Calm     89% 0.00 in WeatherDisplay:10.37 W/m2 CLR
01:20 71.9 °F 68.5 °F 29.85 in Calm     89% 0.00 in WeatherDisplay:10.37 W/m2 CLR
01:30 71.9 °F 68.5 °F 29.85 in Calm     89% 0.00 in WeatherDisplay:10.37 W/m2 CLR
01:40 71.8 °F 68.4 °F 29.84 in Calm     89% 0.00 in WeatherDisplay:10.37 W/m2 CLR
01:50 71.8 °F 68.7 °F 29.84 in Calm     90% 0.00 in WeatherDisplay:10.37 W/m2 CLR
02:00 71.7 °F 68.6 °F 29.84 in Calm     90% 0.00 in WeatherDisplay:10.37 W/m2 CLR
02:20 71.8 °F 68.4 °F 29.84 in Calm     89% 0.00 in WeatherDisplay:10.37 W/m2 CLR
02:30 71.6 °F 68.2 °F 29.84 in Calm     89% 0.00 in WeatherDisplay:10.37 W/m2 CLR
02:40 71.6 °F 68.2 °F 29.84 in Calm     89% 0.00 in WeatherDisplay:10.37 W/m2 CLR
02:50 71.6 °F 68.2 °F 29.84 in Calm     89% 0.00 in WeatherDisplay:10.37 W/m2 CLR
03:00 71.6 °F 68.2 °F 29.84 in Calm     89% 0.00 in WeatherDisplay:10.37 W/m2 CLR
03:10 71.6 °F 68.2 °F 29.85 in Calm     89% 0.00 in WeatherDisplay:10.37 W/m2 CLR
03:20 71.6 °F 68.2 °F 29.85 in Calm     89% 0.00 in WeatherDisplay:10.37 W/m2 CLR
03:30 71.6 °F 68.2 °F 29.86 in Calm     89% 0.00 in WeatherDisplay:10.37 W/m2 CLR
03:40 71.6 °F 68.2 °F 29.86 in Calm     89% 0.00 in WeatherDisplay:10.37 W/m2 CLR
04:00 71.6 °F 68.2 °F 29.87 in Calm     89% 0.00 in WeatherDisplay:10.37 W/m2 CLR
04:10 71.6 °F 68.2 °F 29.88 in Calm     89% 0.00 in WeatherDisplay:10.37 W/m2 CLR
04:20 71.6 °F 68.2 °F 29.89 in Calm     89% 0.00 in WeatherDisplay:10.37 W/m2 CLR
04:30 71.6 °F 68.2 °F 29.89 in Calm     89% 0.00 in WeatherDisplay:10.37 W/m2 CLR
04:40 71.6 °F 68.2 °F 29.90 in Calm     89% 0.00 in WeatherDisplay:10.37 W/m2 CLR
04:50 71.6 °F 68.2 °F 29.91 in Calm     89% 0.00 in WeatherDisplay:10.37 W/m2 CLR
05:00 71.6 °F 68.2 °F 29.91 in Calm     89% 0.00 in WeatherDisplay:10.37 W/m2 CLR
05:10 71.6 °F 68.2 °F 29.92 in Calm     89% 0.00 in WeatherDisplay:10.37 W/m2 CLR
05:20 71.6 °F 68.2 °F 29.93 in Calm     89% 0.00 in WeatherDisplay:10.37 W/m2 CLR
05:30 71.6 °F 68.2 °F 29.93 in Calm     89% 0.00 in WeatherDisplay:10.37 W/m2 CLR
05:40 71.6 °F 68.2 °F 29.93 in Calm     89% 0.00 in WeatherDisplay:10.37 W/m2 CLR
05:50 71.6 °F 68.2 °F 29.93 in Calm     89% 0.00 in WeatherDisplay:10.37 W/m2 CLR
06:00 71.6 °F 68.2 °F 29.94 in Calm     89% 0.00 in WeatherDisplay:10.37 W/m2 CLR
06:20 71.6 °F 68.2 °F 29.94 in Calm     89% 0.00 in WeatherDisplay:10.37 W/m2 CLR
06:30 71.6 °F 68.2 °F 29.94 in Calm     89% 0.00 in WeatherDisplay:10.37 W/m2 CLR
06:40 71.6 °F 68.2 °F 29.94 in Calm     89% 0.00 in WeatherDisplay:10.37 W/m2 CLR
06:50 71.6 °F 68.2 °F 29.94 in Calm     89% 0.00 in WeatherDisplay:10.37 W/m2 CLR
07:00 71.6 °F 68.2 °F 29.95 in Calm     89% 0.00 in WeatherDisplay:10.37 W/m2 CLR
07:10 71.6 °F 68.2 °F 29.94 in Calm     89% 0.00 in WeatherDisplay:10.37 W/m2 CLR
07:20 71.6 °F 68.2 °F 29.95 in Calm     89% 0.00 in WeatherDisplay:10.37 W/m2 CLR
07:30 71.6 °F 68.2 °F 29.94 in Calm     89% 0.00 in WeatherDisplay:10.37 W/m2 CLR
07:40 71.6 °F 68.2 °F 29.94 in Calm     89% 0.00 in WeatherDisplay:10.37 W/m2 CLR
07:50 71.2 °F 67.8 °F 29.93 in Calm     89% 0.00 in WeatherDisplay:10.37 W/m2 CLR
08:00 71.8 °F 68.0 °F 29.93 in Calm     88% 0.00 in WeatherDisplay:10.37 W/m2 CLR
08:10 72.1 °F 67.7 °F 29.92 in Calm   1.0 mph 86% 0.00 in WeatherDisplay:10.37 W/m2 CLR
08:20 72.5 °F 68.1 °F 29.93 in Calm   1.0 mph 86% 0.00 in WeatherDisplay:10.37 W/m2 CLR
08:30 72.9 °F 68.1 °F 29.93 in Calm     85% 0.00 in WeatherDisplay:10.37 W/m2 CLR
08:40 73.3 °F 68.5 °F 29.93 in Calm     85% 0.00 in WeatherDisplay:10.37 W/m2 CLR
08:50 73.8 °F 68.7 °F 29.93 in Calm     84% 0.00 in WeatherDisplay:10.37 W/m2 CLR
09:00 74.2 °F 68.3 °F 29.93 in Calm   1.0 mph 82% 0.00 in WeatherDisplay:10.37 W/m2 CLR
09:10 74.6 °F 68.0 °F 29.94 in Calm   1.0 mph 80% 0.00 in WeatherDisplay:10.37 W/m2 CLR
09:20 75.1 °F 68.5 °F 29.94 in Calm   1.0 mph 80% 0.00 in WeatherDisplay:10.37 W/m2 CLR
09:30 75.8 °F 68.8 °F 29.95 in Calm   1.0 mph 79% 0.00 in WeatherDisplay:10.37 W/m2 CLR
09:40 75.9 °F 68.9 °F 29.95 in Calm   1.0 mph 79% 0.00 in WeatherDisplay:10.37 W/m2 CLR
09:50 76.4 °F 69.4 °F 29.95 in Calm   1.0 mph 79% 0.00 in WeatherDisplay:10.37 W/m2 CLR
10:10 76.4 °F 68.7 °F 29.96 in Calm   1.0 mph 77% 0.00 in WeatherDisplay:10.37 W/m2 CLR
10:20 77.6 °F 69.9 °F 29.96 in Calm     77% 0.00 in WeatherDisplay:10.37 W/m2 CLR
10:30 78.1 °F 69.5 °F 29.96 in Calm     75% 0.00 in WeatherDisplay:10.37 W/m2 CLR
10:40 78.3 °F 69.3 °F 29.96 in Calm   1.0 mph 74% 0.00 in WeatherDisplay:10.37 W/m2 CLR
10:50 79.2 °F 69.8 °F 29.96 in Calm   1.0 mph 73% 0.00 in WeatherDisplay:10.37 W/m2 CLR
11:00 79.1 °F 68.9 °F 29.95 in Calm   2.0 mph 71% 0.00 in WeatherDisplay:10.37 W/m2 CLR
11:10 79.5 °F 69.3 °F 29.95 in Calm   2.0 mph 71% 0.00 in WeatherDisplay:10.37 W/m2 CLR
11:20 79.2 °F 69.8 °F 29.95 in Calm     73% 0.00 in WeatherDisplay:10.37 W/m2 CLR
11:30 79.2 °F 69.4 °F 29.95 in Calm     72% 0.00 in WeatherDisplay:10.37 W/m2 CLR
11:40 79.0 °F 69.6 °F 29.95 in Calm   1.0 mph 73% 0.00 in WeatherDisplay:10.37 W/m2 CLR
11:50 79.2 °F 69.8 °F 29.95 in Calm   1.0 mph 73% 0.00 in WeatherDisplay:10.37 W/m2 CLR
12:00 79.3 °F 69.1 °F 29.94 in Calm     71% 0.00 in WeatherDisplay:10.37 W/m2 CLR
12:10 79.7 °F 69.9 °F 29.94 in Calm     72% 0.00 in WeatherDisplay:10.37 W/m2 CLR
12:20 80.0 °F 70.2 °F 29.93 in Calm   1.0 mph 72% 0.00 in WeatherDisplay:10.37 W/m2 CLR
12:30 80.9 °F 69.8 °F 29.92 in Calm   1.0 mph 69% 0.00 in WeatherDisplay:10.37 W/m2 CLR
12:50 81.6 °F 71.3 °F 29.92 in Calm   2.0 mph 71% 0.00 in WeatherDisplay:10.37 W/m2 CLR
13:00 82.6 °F 70.1 °F 29.92 in NW 1.0 mph 2.0 mph 66% 0.00 in WeatherDisplay:10.37 W/m2 CLR
13:10 83.0 °F 71.3 °F 29.92 in Calm   2.0 mph 68% 0.00 in WeatherDisplay:10.37 W/m2 CLR
13:20 84.5 °F 69.6 °F 29.93 in Calm   1.0 mph 61% 0.00 in WeatherDisplay:10.37 W/m2 CLR
13:30 83.7 °F 70.2 °F 29.93 in Calm   2.0 mph 64% 0.00 in WeatherDisplay:10.37 W/m2 CLR
13:40 82.5 °F 70.5 °F 29.93 in Calm     67% 0.00 in WeatherDisplay:10.37 W/m2 CLR
13:50 82.3 °F 70.7 °F 29.93 in Calm     68% 0.00 in WeatherDisplay:10.37 W/m2 CLR
14:00 82.4 °F 70.8 °F 29.93 in Calm     68% 0.00 in WeatherDisplay:10.37 W/m2 CLR
14:10 81.4 °F 70.7 °F 29.92 in Calm   6.0 mph 70% 0.00 in WeatherDisplay:10.37 W/m2 CLR
14:20 80.5 °F 71.4 °F 29.92 in Calm   5.0 mph 74% 0.00 in WeatherDisplay:10.37 W/m2 CLR
14:30 79.9 °F 69.7 °F 29.92 in Calm   3.0 mph 71% 0.00 in WeatherDisplay:10.37 W/m2 CLR
14:50 77.6 °F 72.4 °F 29.90 in Calm   1.0 mph 84% 0.00 in WeatherDisplay:10.37 W/m2 CLR
15:00 77.2 °F 72.0 °F 29.90 in Calm     84% 0.00 in WeatherDisplay:10.37 W/m2 CLR
15:20 78.2 °F 72.3 °F 29.90 in Calm     82% 0.00 in WeatherDisplay:10.37 W/m2 CLR
15:30 78.6 °F 72.3 °F 29.90 in Calm   1.0 mph 81% 0.00 in WeatherDisplay:10.37 W/m2 CLR
15:40 78.4 °F 72.4 °F 29.90 in Calm   1.0 mph 82% 0.00 in WeatherDisplay:10.37 W/m2 CLR
15:50 78.1 °F 71.8 °F 29.90 in Calm     81% 0.00 in WeatherDisplay:10.37 W/m2 CLR
16:00 78.3 °F 72.3 °F 29.90 in Calm   1.0 mph 82% 0.00 in WeatherDisplay:10.37 W/m2 CLR
16:10 78.2 °F 71.5 °F 29.89 in Calm   1.0 mph 80% 0.00 in WeatherDisplay:10.37 W/m2 CLR
16:20 79.0 °F 72.3 °F 29.89 in Calm     80% 0.00 in WeatherDisplay:10.37 W/m2 CLR
16:30 79.7 °F 71.8 °F 29.89 in Calm     77% 0.00 in WeatherDisplay:10.37 W/m2 CLR
16:40 80.2 °F 72.3 °F 29.89 in Calm   2.0 mph 77% 0.00 in WeatherDisplay:10.37 W/m2 CLR
16:50 80.1 °F 71.9 °F 29.89 in Calm   1.0 mph 76% 0.00 in WeatherDisplay:10.37 W/m2 CLR
17:00 79.9 °F 72.0 °F 29.89 in Calm   2.0 mph 77% 0.00 in WeatherDisplay:10.37 W/m2 CLR
17:10 80.5 °F 73.0 °F 29.89 in Calm   1.0 mph 78% 0.00 in WeatherDisplay:10.37 W/m2 CLR
17:20 79.2 °F 72.9 °F 29.89 in Calm   1.0 mph 81% 0.04 in WeatherDisplay:10.37 W/m2 RA
17:30 78.2 °F 73.7 °F 29.89 in Calm     86% 0.00 in WeatherDisplay:10.37 W/m2 CLR
17:40 77.9 °F 73.4 °F 29.89 in Calm     86% 0.00 in WeatherDisplay:10.37 W/m2 CLR
17:50 77.5 °F 72.6 °F 29.89 in Calm     85% 0.00 in WeatherDisplay:10.37 W/m2 CLR
18:00 77.4 °F 72.5 °F 29.89 in Calm     85% 0.00 in WeatherDisplay:10.37 W/m2 CLR
18:10 77.2 °F 72.0 °F 29.89 in Calm     84% 0.00 in WeatherDisplay:10.37 W/m2 CLR
18:20 76.8 °F 72.0 °F 29.89 in Calm     85% 0.00 in WeatherDisplay:10.37 W/m2 CLR
18:30 76.4 °F 71.9 °F 29.88 in Calm     86% 0.00 in WeatherDisplay:10.37 W/m2 CLR
18:40 76.1 °F 71.9 °F 29.88 in Calm     87% 0.00 in WeatherDisplay:10.37 W/m2 CLR
18:50 76.4 °F 72.9 °F 29.88 in Calm     89% 0.00 in WeatherDisplay:10.37 W/m2 CLR
19:00 76.5 °F 72.3 °F 29.88 in Calm     87% 0.00 in WeatherDisplay:10.37 W/m2 CLR
19:10 76.6 °F 72.4 °F 29.88 in Calm     87% 0.00 in WeatherDisplay:10.37 W/m2 CLR
19:20 76.6 °F 72.1 °F 29.88 in Calm     86% 0.00 in WeatherDisplay:10.37 W/m2 CLR
19:30 76.8 °F 72.3 °F 29.88 in Calm     86% 0.00 in WeatherDisplay:10.37 W/m2 CLR
19:40 76.4 °F 71.2 °F 29.88 in Calm     84% 0.00 in WeatherDisplay:10.37 W/m2 CLR
19:50 76.0 °F 70.5 °F 29.88 in Calm     83% 0.00 in WeatherDisplay:10.37 W/m2 CLR
20:00 75.7 °F 70.5 °F 29.89 in Calm     84% 0.00 in WeatherDisplay:10.37 W/m2 CLR
20:10 75.3 °F 70.5 °F 29.90 in Calm     85% 0.00 in WeatherDisplay:10.37 W/m2 CLR
20:20 75.0 °F 70.5 °F 29.91 in Calm     86% 0.00 in WeatherDisplay:10.37 W/m2 CLR
20:30 74.7 °F 70.6 °F 29.92 in Calm     87% 0.00 in WeatherDisplay:10.37 W/m2 CLR
20:40 74.5 °F 70.4 °F 29.92 in Calm     87% 0.00 in WeatherDisplay:10.37 W/m2 CLR
20:50 74.4 °F 70.6 °F 29.92 in Calm     88% 0.00 in WeatherDisplay:10.37 W/m2 CLR
21:00 74.3 °F 70.5 °F 29.92 in Calm     88% 0.00 in WeatherDisplay:10.37 W/m2 CLR
21:10 74.2 °F 70.4 °F 29.93 in Calm     88% 0.00 in WeatherDisplay:10.37 W/m2 CLR
21:20 74.2 °F 70.7 °F 29.93 in Calm     89% 0.00 in WeatherDisplay:10.37 W/m2 CLR
21:30 74.1 °F 70.6 °F 29.94 in Calm     89% 0.00 in WeatherDisplay:10.37 W/m2 CLR
21:40 73.9 °F 70.5 °F 29.94 in Calm     89% 0.00 in WeatherDisplay:10.37 W/m2 CLR
21:50 73.9 °F 70.4 °F 29.94 in Calm     89% 0.00 in WeatherDisplay:10.37 W/m2 CLR
22:00 73.9 °F 70.4 °F 29.95 in Calm     89% 0.00 in WeatherDisplay:10.37 W/m2 CLR
22:10 73.8 °F 70.4 °F 29.95 in Calm     89% 0.00 in WeatherDisplay:10.37 W/m2 CLR
22:20 73.8 °F 70.4 °F 29.95 in Calm     89% 0.00 in WeatherDisplay:10.37 W/m2 CLR
22:30 73.8 °F 70.4 °F 29.95 in Calm     89% 0.00 in WeatherDisplay:10.37 W/m2 CLR
22:40 73.9 °F 70.4 °F 29.95 in Calm     89% 0.00 in WeatherDisplay:10.37 W/m2 CLR
22:50 73.8 °F 70.4 °F 29.95 in Calm     89% 0.00 in WeatherDisplay:10.37 W/m2 CLR
23:00 73.8 °F 70.4 °F 29.95 in Calm     89% 0.00 in WeatherDisplay:10.37 W/m2 CLR
23:20 73.7 °F 70.6 °F 29.95 in Calm     90% 0.00 in WeatherDisplay:10.37 W/m2 CLR
23:30 73.7 °F 70.6 °F 29.95 in Calm     90% 0.00 in WeatherDisplay:10.37 W/m2 CLR
23:40 73.7 °F 70.6 °F 29.95 in Calm     90% 0.00 in WeatherDisplay:10.37 W/m2 CLR
23:50 73.8 °F 70.7 °F 29.95 in Calm     90% 0.00 in WeatherDisplay:10.37 W/m2 CLR
Piedmont Bend
Compliments of Weather Underground - 4 mb